Tiempo atmosférico en la estación meteorológica de Haría, Las Palmas (277 m.)



Fecha
DESCASC
Temp. máxima en grados centígrados (hora)
DESCASC
Temp. mínima en grados centígrados (hora)
DESCASC
Temp. media en grados centígrados
DESCASC
Racha de viento máxima en m/sg (hora)
DESCASC
Velocidad máxima media en intervalos de 10 minutos(hora)
DESCASC
Precipitaciones diarias en mm
DESCASC
Precipitaciones de 00:00 a 06:00 en mm
DESCASC
Precipitaciones de 06:00 a 12:00 en mm
DESCASC
Precipitaciones de 12:00 a 18:00 en mm
DESCASC
Precipitaciones de 18:00 a 24:00 en mm
DESCASC
22-01-2020 18 (14:40) 11.3 (04:40) 14.7 10.56 (12:30) 7.22 (12:30) 0.4 0 0 0 0.4
21-01-2020 16.4 (14:30) 11.4 (01:20) 13.9 9.72 (01:00) 6.67 (05:20) 0.4 0.4 0 0 0
20-01-2020 16.9 (11:30) 12.4 (23:59) 14.6 16.11 (14:30) 9.72 (18:40) 0 0 0 0 0
19-01-2020 18.3 (12:10) 12.6 (00:00) 15.4 10 (19:50) 6.67 (20:10) 0.2 0 0 0 0.2
18-01-2020 19.9 (14:00) 11.6 (00:00) 15.8 6.11 (14:20) 3.89 (13:10) 0 0 0 0 0
17-01-2020 18.7 (13:20) 10.6 (00:00) 14.7 8.89 (12:20) 6.67 (10:10) 0 0 0 0 0
16-01-2020 19 (12:50) 10.1 (00:00) 14.6 8.33 (12:50) 6.11 (14:10) 0 0 0 0 0
15-01-2020 18.9 (13:40) 8.7 (00:00) 13.8 12.22 (13:30) 8.33 (12:40) 0 0 0 0 0
14-01-2020 18.7 (14:10) 10.1 (00:00) 14.4 15 (11:40) 9.72 (11:40) 0 0 0 0 0
13-01-2020 18.4 (12:30) 12 (00:00) 15.2 8.61 (13:40) 6.11 (12:00) 0 0 0 0 0
12-01-2020 18.6 (13:00) 12.6 (00:00) 15.6 8.89 (01:30) 6.11 (11:40) 0 0 0 0 0
11-01-2020 16.4 (11:40) 14.4 (00:00) 15.4 11.39 (12:40) 7.5 (12:50) 0 0 0 0 0
10-01-2020 17.6 (12:00) 14.3 (00:00) 16 13.89 (05:00) 8.61 (12:10) 2 1.4 0.6 0 0
09-01-2020 17.8 (11:50) 14 (00:00) 15.9 11.39 (12:10) 7.5 (14:30) 0 0 0 0 0
08-01-2020 17.6 (14:10) 13.4 (00:00) 15.5 9.44 (15:10) 5.83 (16:00) 0 0 0 0 0
07-01-2020 17.9 (11:50) 13 (00:00) 15.4 8.06 (14:40) 5.56 (14:00) 0 0 0 0 0
06-01-2020 18.7 (12:50) 12.5 (00:00) 15.6 11.94 (17:10) 7.78 (04:50) 0.4 0 0 0.4 0
05-01-2020 17.3 (15:10) 12.7 (00:00) 15 7.22 (11:30) 3.89 (14:30) 0 0 0 0 0
04-01-2020 18.5 (11:40) 13.7 (00:00) 16.1 10.28 (11:50) 6.67 (12:10) 0 0 0 0 0
03-01-2020 18.5 (12:30) 13.8 (00:00) 16.2 11.67 (11:20) 8.89 (12:30) 0 0 0 0 0
02-01-2020 18.1 (12:00) 12.8 (00:00) 15.5 14.72 (04:50) 10.28 (05:30) 0 0 0 0 0
01-01-2020 17.2 (13:10) 11.9 (00:00) 14.6 18.61 (11:00) 13.61 (10:50) 0 0 0 0 0
31-12-2019 18.8 (14:40) 10.7 (00:00) 14.7 7.78 (12:20) 5.28 (13:00) 0 0 0 0 0
30-12-2019 -- (--) -- (--) -- -- (--) -- (--) -- 0 0 -- 0
29-12-2019 21 (13:00) 13.1 (00:00) 17.1 11.39 (11:00) 8.06 (10:50) 0 0 0 0 0
28-12-2019 21.8 (14:10) 14.2 (00:00) 18 9.72 (12:20) 6.39 (12:20) 0 0 0 0 0
27-12-2019 21.9 (14:10) 14.4 (00:00) 18.1 6.67 (11:30) 3.89 (12:20) 0 0 0 0 0

Gráficas

Temp. máximas Temp. mínimas Temp. medias Precipitaciones Rachas de viento máximas Velocidades máximas media en intervalos de 10 minutos

Datos horarios

Fecha y hora oficial Temperatura (ºC) Velocidad del viento (km/h) Dirección del viento Racha (km/h) Dirección de racha Precipitación (mm) Presión (hPa) Tendencia (hPa) Humedad (%)
2020-01-25 23:00:00 11.3 9 Noroeste 11 Noroeste 0 -- -- 84
2020-01-25 22:00:00 12.6 5 Oeste 12 Norte 0 -- -- 81
2020-01-25 21:00:00 13.4 7 Noroeste 11 Noroeste 0 -- -- 79
2020-01-25 20:00:00 14 9 Noroeste 16 Noroeste 0 -- -- 76
2020-01-25 19:00:00 14.6 11 Noroeste 25 Noroeste 0 -- -- 73
2020-01-25 18:00:00 15.7 19 Noroeste 29 Noroeste 0 -- -- 69
2020-01-25 17:00:00 16.3 21 Noroeste 33 Noroeste 0 -- -- 66
2020-01-25 16:00:00 17.5 17 Noroeste 32 Noroeste 0 -- -- 63
2020-01-25 15:00:00 17.7 17 Noroeste 35 Noroeste 0 -- -- 64
2020-01-25 14:00:00 17.6 18 Noroeste 32 Noroeste 0 -- -- 64
2020-01-25 13:00:00 17.6 15 Noroeste 28 Noroeste 0 -- -- 63
2020-01-25 12:00:00 17.2 17 Oeste 29 Noroeste 0 -- -- 67
2020-01-25 11:00:00 17.2 14 Noroeste 30 Noroeste 0 -- -- 67
2020-01-25 10:00:00 16.5 14 Noroeste 23 Noroeste 0 -- -- 72
2020-01-25 09:00:00 15.4 10 Noroeste 22 Oeste 0 -- -- 77
2020-01-25 08:00:00 14.3 10 Noroeste 23 Noroeste 0 -- -- 81
2020-01-25 07:00:00 14.1 12 Noroeste 23 Noroeste 0 -- -- 81
2020-01-25 06:00:00 14.4 14 Noroeste 31 Noroeste 0 -- -- 81
2020-01-25 05:00:00 14 11 Noroeste 21 Noroeste 0 -- -- 83
2020-01-25 04:00:00 14.1 9 Oeste 18 Oeste 0 -- -- 82
2020-01-25 03:00:00 14.2 12 Oeste 32 Noroeste 0 -- -- 79
2020-01-25 02:00:00 14.4 25 Noroeste 37 Noroeste 0 -- -- 78
2020-01-25 01:00:00 14.4 25 Noroeste 47 Oeste 0 -- -- 80
2020-01-25 00:00:00 14.4 20 Noroeste 38 Noroeste 0 -- -- 78
2020-01-24 23:00:00 14.6 23 Noroeste 42 Noroeste 0 -- -- 78
2020-01-24 22:00:00 14.4 19 Noroeste 34 Oeste 0 -- -- 84
2020-01-24 21:00:00 14.6 16 Oeste 31 Oeste 0 -- -- 85
2020-01-24 20:00:00 14.6 18 Oeste 31 Oeste 0 -- -- 83
2020-01-24 19:00:00 14.9 22 Oeste 34 Oeste 0 -- -- 78
2020-01-24 18:00:00 15.3 19 Oeste 31 Oeste 0 -- -- 79
2020-01-24 17:00:00 15.4 21 Oeste 36 Oeste 0 -- -- 75
2020-01-24 16:00:00 17.1 22 Oeste 32 Oeste 0 -- -- 70
2020-01-24 15:00:00 17.3 18 Oeste 35 Oeste 0 -- -- 71
2020-01-24 14:00:00 15.8 25 Oeste 42 Oeste 0 -- -- 74
2020-01-24 13:00:00 17.2 19 Oeste 35 Oeste 0 -- -- 68
2020-01-24 12:00:00 17.6 19 Oeste 35 Oeste 0 -- -- 67
2020-01-24 11:00:00 17.7 21 Oeste 34 Sudoeste 0 -- -- 65
2020-01-24 10:00:00 16.5 20 Oeste 32 Oeste 0 -- -- 66
2020-01-24 09:00:00 15.2 17 Oeste 30 Oeste 0 -- -- 74
2020-01-24 08:00:00 14.1 18 Oeste 31 Oeste 0 -- -- 77
2020-01-24 07:00:00 14.2 20 Oeste 32 Sudoeste 0 -- -- 76
2020-01-24 06:00:00 14.1 19 Oeste 31 Oeste 0 -- -- 75
2020-01-24 05:00:00 14.2 18 Oeste 30 Oeste 0 -- -- 76
2020-01-24 04:00:00 14.4 17 Oeste 29 Oeste 0 -- -- 76
2020-01-24 03:00:00 14.3 18 Oeste 27 Oeste 0 -- -- 77
2020-01-24 02:00:00 13.9 8 Oeste 15 Oeste 0 -- -- 77
2020-01-24 01:00:00 13.8 4 Oeste 19 Oeste 0 -- -- 76
2020-01-24 00:00:00 14.2 11 Oeste 25 Oeste 0 -- -- 76
2020-01-23 23:00:00 14.2 13 Oeste 26 Oeste 0 -- -- 74
2020-01-23 22:00:00 14.5 13 Oeste 21 Oeste 0 -- -- 74
2020-01-23 21:00:00 14.7 10 Sudoeste 23 Oeste 0 -- -- 74
2020-01-23 20:00:00 14.6 13 Oeste 26 Oeste 0 -- -- 75
2020-01-23 19:00:00 14.6 11 Oeste 27 Oeste 0 -- -- 74
2020-01-23 18:00:00 15 13 Oeste 26 Oeste 0 -- -- 72
2020-01-23 17:00:00 15.9 15 Oeste 28 Oeste 0 -- -- 66
2020-01-23 16:00:00 16.6 17 Oeste 28 Oeste 0 -- -- 64
2020-01-23 15:00:00 16.7 19 Oeste 30 Oeste 0 -- -- 64
2020-01-23 14:00:00 16.9 17 Oeste 29 Oeste 0 -- -- 64
2020-01-23 13:00:00 16.8 18 Oeste 30 Oeste 0 -- -- 67
2020-01-23 12:00:00 16.3 16 Oeste 29 Oeste 0 -- -- 69
2020-01-23 11:00:00 15.8 17 Oeste 30 Oeste 0 -- -- 72
2020-01-23 10:00:00 15.1 18 Noroeste 37 Noroeste 0 -- -- 76
2020-01-23 09:00:00 14.5 14 Oeste 36 Oeste 0 -- -- 83
2020-01-23 08:00:00 13.3 15 Oeste 36 Sudoeste 0.6 -- -- 82
2020-01-23 07:00:00 13.6 22 Oeste 33 Oeste 0 -- -- 81
2020-01-23 06:00:00 13.4 18 Sudoeste 31 Oeste 0 -- -- 83
2020-01-23 05:00:00 13.2 19 Oeste 31 Sudoeste 0 -- -- 83
2020-01-23 04:00:00 13.5 15 Sudoeste 24 Sudoeste 0 -- -- 79
2020-01-23 03:00:00 13.4 17 Oeste 29 Oeste 0 -- -- 78
2020-01-23 02:00:00 13.4 12 Oeste 27 Oeste 0 -- -- 76
2020-01-23 01:00:00 13.5 14 Sudoeste 27 Oeste 0 -- -- 75
2020-01-23 00:00:00 13.9 10 Oeste 21 Sudoeste 0 -- -- 75
2020-01-22 23:00:00 13.3 5 Oeste 12 Oeste 0 -- -- 75
2020-01-22 22:00:00 13.4 4 Oeste 38 Oeste 0.4 -- -- 78
2020-01-22 21:00:00 14 10 Oeste 19 Oeste 0 -- -- 73
2020-01-22 20:00:00 13.9 6 Sudoeste 17 Oeste 0 -- -- 72
2020-01-22 19:00:00 14 9 Oeste 23 Oeste 0 -- -- 69
2020-01-22 18:00:00 14.7 13 Oeste 28 Oeste 0 -- -- 66
2020-01-22 17:00:00 15.7 15 Oeste 38 Oeste 0 -- -- 63
2020-01-22 16:00:00 15.9 19 Oeste 30 Oeste 0 -- -- 63
2020-01-22 15:00:00 17.5 11 Oeste 23 Oeste 0 -- -- 56
2020-01-22 14:00:00 17.2 15 Oeste 33 Oeste 0 -- -- 54
2020-01-22 13:00:00 16.7 23 Oeste 38 Oeste 0 -- -- 63
2020-01-22 12:00:00 15.7 25 Oeste 37 Oeste 0 -- -- 70
2020-01-22 11:00:00 16 15 Oeste 22 Oeste 0 -- -- 67
2020-01-22 10:00:00 15 10 Oeste 15 Sudoeste 0 -- -- 73
2020-01-22 09:00:00 13 6 Oeste 16 Oeste 0 -- -- 82
2020-01-22 08:00:00 11.5 4 Noroeste 8 Noroeste 0 -- -- 83
2020-01-22 07:00:00 11.6 2 Oeste 10 Oeste 0 -- -- 82
2020-01-22 06:00:00 12 8 Noroeste 10 Noroeste 0 -- -- 82
2020-01-22 05:00:00 11.4 4 Noroeste 12 Noroeste 0 -- -- 80
2020-01-22 04:00:00 12.4 12 Noroeste 22 Noroeste 0 -- -- 78
2020-01-22 03:00:00 13 14 Noroeste 21 Noroeste 0 -- -- 77
2020-01-22 02:00:00 13 14 Noroeste 26 Noroeste 0 -- -- 75
2020-01-22 01:00:00 13 18 Noroeste 27 Noroeste 0 -- -- 70
2020-01-22 00:00:00 13.3 17 Noroeste 33 Noroeste 0 -- -- 72
2020-01-21 23:00:00 13.1 22 Noroeste 33 Noroeste 0 -- -- 69
2020-01-21 22:00:00 13.1 17 Noroeste 28 Noroeste 0 -- -- 74
2020-01-21 21:00:00 13.1 18 Noroeste 28 Noroeste 0 -- -- 74
2020-01-21 20:00:00 12.7 17 Noroeste 23 Noroeste 0 -- -- 70
2020-01-21 19:00:00 12.9 15 Noroeste 24 Noroeste 0 -- -- 67
2020-01-21 18:00:00 13.6 15 Noroeste 22 Noroeste 0 -- -- 67
2020-01-21 17:00:00 15 15 Noroeste 28 Noroeste 0 -- -- 60
2020-01-21 16:00:00 15 18 Noroeste 26 Noroeste 0 -- -- 61
2020-01-21 15:00:00 16 18 Noroeste 28 Oeste 0 -- -- 55
2020-01-21 14:00:00 15.5 15 Noroeste 26 Norte 0 -- -- 59
2020-01-21 13:00:00 14.3 9 Norte 26 Noroeste 0 -- -- 68
2020-01-21 12:00:00 14.9 18 Noroeste 30 Noroeste 0 -- -- 62
2020-01-21 11:00:00 13.9 14 Noroeste 25 Noroeste 0 -- -- 71
2020-01-21 10:00:00 13.1 16 Noroeste 25 Noroeste 0 -- -- 76
2020-01-21 09:00:00 12.6 18 Noroeste 30 Noroeste 0 -- -- 76
2020-01-21 08:00:00 12.2 18 Noroeste 32 Noroeste 0 -- -- 73
2020-01-21 07:00:00 11.9 23 Noroeste 35 Noroeste 0 -- -- 73
2020-01-21 06:00:00 12.1 19 Noroeste 35 Noroeste 0 -- -- 73
2020-01-21 05:00:00 12.3 22 Noroeste 31 Noroeste 0 -- -- 71
2020-01-21 04:00:00 12.2 19 Noroeste 28 Noroeste 0 -- -- 73
2020-01-21 03:00:00 12.1 19 Noroeste 34 Norte 0 -- -- 72
2020-01-21 02:00:00 12.2 20 Noroeste 34 Norte 0.4 -- -- 77
2020-01-21 01:00:00 12.2 21 Noroeste 35 Norte 0 -- -- 72
2020-01-21 00:00:00 12.4 17 Noroeste 37 Norte 0 -- -- 57
2020-01-20 23:00:00 13.2 24 Noroeste 37 Noroeste 0 -- -- 58
2020-01-20 22:00:00 13.3 23 Noroeste 41 Noroeste 0 -- -- 63
2020-01-20 21:00:00 13.5 27 Noroeste 39 Norte 0 -- -- 60
2020-01-20 20:00:00 13.2 27 Noroeste 50 Norte 0 -- -- 54
2020-01-20 19:00:00 13.4 33 Noroeste 51 Norte 0 -- -- 61
2020-01-20 18:00:00 13.9 33 Noroeste 50 Noroeste 0 -- -- 58
2020-01-20 17:00:00 14.5 27 Noroeste 45 Norte 0 -- -- 57
2020-01-20 16:00:00 14.7 29 Norte 47 Noroeste 0 -- -- 54
2020-01-20 15:00:00 15.2 29 Norte 58 Norte 0 -- -- 52
2020-01-20 14:00:00 15.4 31 Norte 54 Noroeste 0 -- -- 54
2020-01-20 13:00:00 16 32 Noroeste 51 Norte 0 -- -- 55
2020-01-20 12:00:00 15.3 28 Norte 45 Norte 0 -- -- 62
2020-01-20 11:00:00 16.5 26 Noroeste 45 Norte 0 -- -- 56
2020-01-20 10:00:00 15.2 23 Noroeste 44 Noroeste 0 -- -- 62
2020-01-20 09:00:00 14.7 22 Noroeste 40 Noroeste 0 -- -- 71
2020-01-20 08:00:00 14.7 24 Norte 43 Noroeste 0 -- -- 64
2020-01-20 07:00:00 14.6 22 Norte 45 Noroeste 0 -- -- 66
2020-01-20 06:00:00 14.3 24 Norte 52 Noroeste 0 -- -- 72
2020-01-20 05:00:00 13.6 23 Noroeste 44 Norte 0 -- -- 78
2020-01-20 04:00:00 14.3 30 Noroeste 45 Norte 0 -- -- 69
2020-01-20 03:00:00 14 28 Noroeste 43 Norte 0 -- -- 68
2020-01-20 02:00:00 14 22 Noroeste 37 Noroeste 0 -- -- 72
2020-01-20 01:00:00 14.1 22 Noroeste 33 Norte 0 -- -- 72
2020-01-20 00:00:00 14.6 20 Norte 36 Norte 0 -- -- 74
2020-01-19 23:00:00 14.8 18 Norte 32 Norte 0 -- -- 76
2020-01-19 22:00:00 14.6 23 Norte 36 Norte 0.2 -- -- 81
2020-01-19 21:00:00 15.5 22 Norte 36 Norte 0 -- -- 84
2020-01-19 20:00:00 15.6 19 Norte 36 Norte 0 -- -- 86
2020-01-19 19:00:00 15.4 14 Norte 31 Norte 0 -- -- 91
2020-01-19 18:00:00 15.6 19 Norte 31 Norte 0 -- -- 89
2020-01-19 17:00:00 16.5 18 Norte 33 Norte 0 -- -- 84
2020-01-19 16:00:00 17.5 21 Norte 31 Norte 0 -- -- 76
2020-01-19 15:00:00 18 19 Norte 30 Norte 0 -- -- 75
2020-01-19 14:00:00 17.7 17 Nordeste 30 Nordeste 0 -- -- 75
2020-01-19 13:00:00 17.5 17 Nordeste 33 Nordeste 0 -- -- 77
2020-01-19 12:00:00 18.2 18 Nordeste 28 Nordeste 0 -- -- 72
2020-01-19 11:00:00 18 14 Nordeste 22 Nordeste 0 -- -- 75
2020-01-19 10:00:00 16.7 8 Nordeste 13 Nordeste 0 -- -- 89
2020-01-19 09:00:00 15.3 3 Nordeste 16 Nordeste 0 -- -- 94
2020-01-19 08:00:00 13.9 8 Nordeste 21 Nordeste 0 -- -- 94
2020-01-19 07:00:00 13.8 11 Nordeste 17 Este 0 -- -- 94
2020-01-19 06:00:00 13.8 7 Nordeste 15 Nordeste 0 -- -- 94
2020-01-19 05:00:00 13.6 6 Norte 15 Nordeste 0 -- -- 93
2020-01-19 04:00:00 13.2 5 Noroeste 12 Norte 0 -- -- 91
2020-01-19 03:00:00 13.6 6 Noroeste 15 Norte 0 -- -- 89
2020-01-19 02:00:00 14.1 5 Noroeste 16 Noroeste 0 -- -- 83
2020-01-19 01:00:00 14 7 Noroeste 19 Norte 0 -- -- 79
2020-01-19 00:00:00 14.3 10 Norte 17 Norte 0 -- -- 61
2020-01-18 23:00:00 13.2 10 Noroeste 16 Noroeste 0 -- -- 72
2020-01-18 22:00:00 13.8 12 Noroeste 18 Norte 0 -- -- 92
2020-01-18 21:00:00 13.3 9 Noroeste 13 Noroeste 0 -- -- 91
2020-01-18 20:00:00 14.4 7 Noroeste 11 Norte 0 -- -- 90
2020-01-18 19:00:00 15.2 6 Norte 10 Norte 0 -- -- 83
2020-01-18 18:00:00 16.8 8 Nordeste 15 Este 0 -- -- 69
2020-01-18 17:00:00 19.2 10 Sudeste 18 Sudeste 0 -- -- 46
2020-01-18 16:00:00 19.3 11 Sudeste 17 Este 0 -- -- 48
2020-01-18 15:00:00 19.7 10 Sudeste 22 Este 0 -- -- 45
2020-01-18 14:00:00 19.9 14 Sudeste 20 Sudeste 0 -- -- 48
2020-01-18 13:00:00 19.6 13 Sudeste 21 Este 0 -- -- 48
2020-01-18 12:00:00 19.1 12 Este 19 Este 0 -- -- 51
2020-01-18 11:00:00 18.2 11 Sudeste 17 Sudeste 0 -- -- 69
2020-01-18 10:00:00 15.5 6 Sudeste 10 Sudeste 0 -- -- 94
2020-01-18 09:00:00 14 3 Nordeste 5 Nordeste 0 -- -- 98
2020-01-18 08:00:00 12.1 0 Calma 4 Oeste 0 -- -- 96
2020-01-18 07:00:00 11.7 2 Noroeste 4 Noroeste 0 -- -- 94
2020-01-18 06:00:00 12.6 2 Norte 4 Este 0 -- -- 93
2020-01-18 05:00:00 13.5 2 Nordeste 6 Nordeste 0 -- -- 94
2020-01-18 04:00:00 13.1 2 Norte 5 Nordeste 0 -- -- 95
2020-01-18 03:00:00 12.8 3 Noroeste 8 Noroeste 0 -- -- 94
2020-01-18 02:00:00 12.8 3 Noroeste 11 Noroeste 0 -- -- 92
2020-01-18 01:00:00 12.6 5 Noroeste 11 Norte 0 -- -- 91
2020-01-18 00:00:00 12.6 5 Norte 11 Norte 0 -- -- 91
2020-01-17 23:00:00 11.9 9 Noroeste 14 Noroeste 0 -- -- 91
2020-01-17 22:00:00 11.8 6 Noroeste 10 Noroeste 0 -- -- 89
2020-01-17 21:00:00 12.5 4 Noroeste 5 Noroeste 0 -- -- 85
2020-01-17 20:00:00 13.9 2 Nordeste 6 Nordeste 0 -- -- 77
2020-01-17 19:00:00 14.3 2 Nordeste 9 Este 0 -- -- 74
2020-01-17 18:00:00 15.6 7 Este 20 Este 0 -- -- 70
2020-01-17 17:00:00 17.2 14 Sudeste 22 Este 0 -- -- 61
2020-01-17 16:00:00 17.7 11 Sudeste 24 Este 0 -- -- 57
2020-01-17 15:00:00 18 13 Este 28 Este 0 -- -- 58
2020-01-17 14:00:00 18.3 17 Sudeste 32 Este 0 -- -- 58
2020-01-17 13:00:00 18.2 15 Sudeste 32 Este 0 -- -- 57
2020-01-17 12:00:00 17.8 18 Este 30 Este 0 -- -- 61
2020-01-17 11:00:00 17.6 20 Este 30 Este 0 -- -- 66
2020-01-17 10:00:00 17.1 23 Este 32 Este 0 -- -- 69
2020-01-17 09:00:00 15.5 13 Este 21 Este 0 -- -- 76
2020-01-17 08:00:00 13.1 9 Nordeste 14 Nordeste 0 -- -- 80
2020-01-17 07:00:00 13 8 Nordeste 15 Nordeste 0 -- -- 80
2020-01-17 06:00:00 12.6 12 Nordeste 16 Este 0 -- -- 78
2020-01-17 05:00:00 12.6 8 Nordeste 15 Nordeste 0 -- -- 76
2020-01-17 04:00:00 12.4 4 Nordeste 8 Nordeste 0 -- -- 76
2020-01-17 03:00:00 10.9 5 Noroeste 12 Noroeste 0 -- -- 75
2020-01-17 02:00:00 11.9 6 Norte 12 Noroeste 0 -- -- 70
2020-01-17 01:00:00 12 4 Norte 8 Nordeste 0 -- -- 42
2020-01-17 00:00:00 11.5 3 Nordeste 5 Nordeste 0 -- -- 48
2020-01-16 23:00:00 11.8 3 Nordeste 8 Este 0 -- -- 45
2020-01-16 22:00:00 13.5 5 Este 9 Este 0 -- -- 38
2020-01-16 21:00:00 10.6 3 Noroeste 7 Noroeste 0 -- -- 38
2020-01-16 20:00:00 11.6 4 Noroeste 7 Noroeste 0 -- -- 37
2020-01-16 19:00:00 13.6 3 Oeste 7 Este 0 -- -- 51
2020-01-16 18:00:00 16.1 3 Sudeste 10 Sudeste 0 -- -- 43
2020-01-16 17:00:00 17.6 8 Sudeste 18 Sudeste 0 -- -- 33
2020-01-16 16:00:00 18 9 Sudeste 23 Sudeste 0 -- -- 35
2020-01-16 15:00:00 18.3 20 Sudeste 29 Sudeste 0 -- -- 39
2020-01-16 14:00:00 18.9 21 Sudeste 29 Este 0 -- -- 42
2020-01-16 13:00:00 18.9 21 Sudeste 30 Este 0 -- -- 51
2020-01-16 12:00:00 18.7 18 Sudeste 28 Sudeste 0 -- -- 51
2020-01-16 11:00:00 18.2 14 Sudeste 25 Este 0 -- -- 47
2020-01-16 10:00:00 16.9 13 Sudeste 20 Sudeste 0 -- -- 65
2020-01-16 09:00:00 15.2 7 Sudeste 12 Sudeste 0 -- -- 72
2020-01-16 08:00:00 11.9 7 Sur 10 Sur 0 -- -- 82
2020-01-16 07:00:00 11.2 4 Oeste 8 Oeste 0 -- -- 79
2020-01-16 06:00:00 10.1 4 Oeste 8 Oeste 0 -- -- 86
2020-01-16 05:00:00 10.4 4 Noroeste 5 Oeste 0 -- -- 86
2020-01-16 04:00:00 11.5 0 Calma 7 Noroeste 0 -- -- 84
2020-01-16 03:00:00 11.3 0 Calma 6 Este 0 -- -- 82
2020-01-16 02:00:00 12.4 2 Norte 6 Oeste 0 -- -- 77
2020-01-16 01:00:00 12.2 3 Noroeste 5 Oeste 0 -- -- 69
2020-01-16 00:00:00 12.6 0 Calma 9 Este 0 -- -- 51
2020-01-15 23:00:00 11.8 2 Norte 5 Noroeste 0 -- -- 51
2020-01-15 22:00:00 11.2 0 Calma 9 Noroeste 0 -- -- 43
2020-01-15 21:00:00 10.1 8 Noroeste 10 Noroeste 0 -- -- 60
2020-01-15 20:00:00 11.6 4 Noroeste 6 Noroeste 0 -- -- 68
2020-01-15 19:00:00 13.5 0 Calma 7 Sudeste 0 -- -- 64
2020-01-15 18:00:00 15 6 Sudeste 13 Sudeste 0 -- -- 59
2020-01-15 17:00:00 16.5 9 Sudeste 19 Sudeste 0 -- -- 52
2020-01-15 16:00:00 17.4 16 Sudeste 27 Sudeste 0 -- -- 48
2020-01-15 15:00:00 17.9 21 Sudeste 35 Sudeste 0 -- -- 47
2020-01-15 14:00:00 18.4 24 Sudeste 44 Sudeste 0 -- -- 41
2020-01-15 13:00:00 18.7 27 Sudeste 43 Sudeste 0 -- -- 38
2020-01-15 12:00:00 18.7 27 Sudeste 38 Sudeste 0 -- -- 31
2020-01-15 11:00:00 18.2 21 Sudeste 39 Sudeste 0 -- -- 53
2020-01-15 10:00:00 16.7 16 Sudeste 24 Sudeste 0 -- -- 67
2020-01-15 09:00:00 12.4 3 Sur 11 Noroeste 0 -- -- 81
2020-01-15 08:00:00 9.1 7 Noroeste 10 Noroeste 0 -- -- 82
2020-01-15 07:00:00 9.6 7 Noroeste 9 Noroeste 0 -- -- 83
2020-01-15 06:00:00 10.7 2 Oeste 8 Sudoeste 0 -- -- 79
2020-01-15 05:00:00 10.3 0 Calma 9 Noroeste 0 -- -- 77
2020-01-15 04:00:00 9.5 8 Noroeste 10 Noroeste 0 -- -- 76
2020-01-15 03:00:00 9 6 Oeste 8 Noroeste 0 -- -- 70
2020-01-15 02:00:00 10.9 3 Noroeste 10 Noroeste 0 -- -- 49
2020-01-15 01:00:00 10.4 7 Noroeste 13 Oeste 0 -- -- 47
2020-01-15 00:00:00 10.1 8 Noroeste 12 Noroeste 0 -- -- 68
2020-01-14 23:00:00 10.4 8 Oeste 10 Noroeste 0 -- -- 74
2020-01-14 22:00:00 11.1 6 Noroeste 9 Noroeste 0 -- -- 56
2020-01-14 21:00:00 12.9 5 Noroeste 12 Sudeste 0 -- -- 39
2020-01-14 20:00:00 15.9 12 Sur 26 Sudoeste 0 -- -- 29
2020-01-14 19:00:00 16.1 19 Sur 28 Sur 0 -- -- 31
2020-01-14 18:00:00 16.4 13 Sudoeste 33 Sudeste 0 -- -- 37
2020-01-14 17:00:00 17.6 20 Sur 42 Sudeste 0 -- -- 34
2020-01-14 16:00:00 18.1 25 Sur 42 Sur 0 -- -- 36
2020-01-14 15:00:00 18.6 22 Sudeste 42 Sur 0 -- -- 37
2020-01-14 14:00:00 18.3 27 Sudeste 48 Sudeste 0 -- -- 38
2020-01-14 13:00:00 17.8 29 Sudeste 52 Sudeste 0 -- -- 43
2020-01-14 12:00:00 17.4 33 Sudeste 54 Sudeste 0 -- -- 44
2020-01-14 11:00:00 17 31 Sudeste 50 Sudeste 0 -- -- 51
2020-01-14 10:00:00 16.4 31 Sudeste 49 Sudeste 0 -- -- 55
2020-01-14 09:00:00 15.2 24 Sudeste 36 Sudeste 0 -- -- 59
2020-01-14 08:00:00 13.9 15 Sudeste 27 Sudeste 0 -- -- 69
2020-01-14 07:00:00 12.6 3 Oeste 15 Sudeste 0 -- -- 68
2020-01-14 06:00:00 13.9 9 Sudeste 17 Sudeste 0 -- -- 68
2020-01-14 05:00:00 14.3 7 Sudeste 23 Sudeste 0 -- -- 68
2020-01-14 04:00:00 14.2 12 Sudeste 26 Sudeste 0 -- -- 79
2020-01-14 03:00:00 13.6 12 Sudeste 28 Sudeste 0 -- -- 84
2020-01-14 02:00:00 13.4 7 Este 12 Este 0 -- -- 82
2020-01-14 01:00:00 12.7 3 Este 15 Este 0 -- -- 75
2020-01-14 00:00:00 13.4 6 Este 14 Sudeste 0 -- -- 74
2020-01-13 23:00:00 12.7 0 Calma 6 Sudeste 0 -- -- 75
2020-01-13 22:00:00 12 4 Noroeste 6 Noroeste 0 -- -- 74
2020-01-13 21:00:00 12.6 4 Oeste 6 Oeste 0 -- -- 71
2020-01-13 20:00:00 13.8 0 Calma 5 Sudeste 0 -- -- 70
2020-01-13 19:00:00 14.4 4 Sur 10 Sudeste 0 -- -- 67
2020-01-13 18:00:00 15.4 9 Sudeste 16 Sudeste 0 -- -- 62
2020-01-13 17:00:00 16.5 13 Sudeste 22 Sudeste 0 -- -- 59
2020-01-13 16:00:00 17.5 14 Este 26 Este 0 -- -- 52
2020-01-13 15:00:00 18 18 Sudeste 27 Este 0 -- -- 52
2020-01-13 14:00:00 18.3 19 Sudeste 31 Este 0 -- -- 49
2020-01-13 13:00:00 18.3 19 Sudeste 30 Sudeste 0 -- -- 50
2020-01-13 12:00:00 18.2 22 Sudeste 30 Sudeste 0 -- -- 50
2020-01-13 11:00:00 17.8 19 Sudeste 27 Este 0 -- -- 53
2020-01-13 10:00:00 16.2 17 Este 22 Este 0 -- -- 58
2020-01-13 09:00:00 15.2 14 Sudeste 22 Este 0 -- -- 80
2020-01-13 08:00:00 13.1 10 Nordeste 14 Este 0 -- -- 87
2020-01-13 07:00:00 13.1 9 Nordeste 12 Nordeste 0 -- -- 87
2020-01-13 06:00:00 13.1 8 Nordeste 12 Nordeste 0 -- -- 87
2020-01-13 05:00:00 13.1 9 Nordeste 15 Nordeste 0 -- -- 87
2020-01-13 04:00:00 13.3 10 Nordeste 14 Nordeste 0 -- -- 85
2020-01-13 03:00:00 13.9 8 Nordeste 15 Nordeste 0 -- -- 85
2020-01-13 02:00:00 14.2 12 Este 19 Nordeste 0 -- -- 86
2020-01-13 01:00:00 14.2 9 Este 20 Este 0 -- -- 88
2020-01-13 00:00:00 13.6 10 Este 20 Nordeste 0 -- -- 84
2020-01-12 23:00:00 13.6 6 Este 14 Nordeste 0 -- -- 78
2020-01-12 22:00:00 14 12 Este 15 Este 0 -- -- 75
2020-01-12 21:00:00 13.9 4 Nordeste 10 Nordeste 0 -- -- 73
2020-01-12 20:00:00 14.1 8 Este 17 Este 0 -- -- 70
2020-01-12 19:00:00 14.5 11 Este 19 Este 0 -- -- 63
2020-01-12 18:00:00 15.4 15 Este 24 Este 0 -- -- 59
2020-01-12 17:00:00 16.7 16 Este 28 Sudeste 0 -- -- 53
2020-01-12 16:00:00 17.6 16 Sudeste 27 Sudeste 0 -- -- 53
2020-01-12 15:00:00 18.1 17 Sudeste 31 Sudeste 0 -- -- 54
2020-01-12 14:00:00 18.2 20 Sudeste 31 Este 0 -- -- 53
2020-01-12 13:00:00 18.6 16 Sudeste 31 Este 0 -- -- 51
2020-01-12 12:00:00 18.3 19 Este 31 Sudeste 0 -- -- 60
2020-01-12 11:00:00 17.4 16 Este 28 Este 0 -- -- 62
2020-01-12 10:00:00 16.3 13 Este 21 Nordeste 0 -- -- 68
2020-01-12 09:00:00 14.5 6 Este 12 Nordeste 0 -- -- 76
2020-01-12 08:00:00 12.8 6 Noroeste 13 Norte 0 -- -- 77
2020-01-12 07:00:00 13.6 6 Nordeste 23 Nordeste 0 -- -- 77
2020-01-12 06:00:00 14.6 6 Nordeste 14 Nordeste 0 -- -- 76
2020-01-12 05:00:00 14.6 8 Nordeste 18 Nordeste 0 -- -- 76
2020-01-12 04:00:00 14.6 9 Norte 23 Nordeste 0 -- -- 73
2020-01-12 03:00:00 14.6 13 Nordeste 24 Nordeste 0 -- -- 72
2020-01-12 02:00:00 14.7 13 Nordeste 32 Nordeste 0 -- -- 72
2020-01-12 01:00:00 14.7 9 Nordeste 28 Nordeste 0 -- -- 74
2020-01-12 00:00:00 14.5 14 Nordeste 29 Nordeste 0 -- -- 74
2020-01-11 23:00:00 14.6 15 Nordeste 30 Nordeste 0 -- -- 75
2020-01-11 22:00:00 14.6 16 Nordeste 29 Norte 0 -- -- 73
2020-01-11 21:00:00 14.7 16 Norte 36 Norte 0 -- -- 72
2020-01-11 20:00:00 14.9 18 Norte 37 Norte 0 -- -- 74
2020-01-11 19:00:00 14.8 22 Norte 39 Norte 0 -- -- 72
2020-01-11 18:00:00 15.1 17 Norte 34 Norte 0 -- -- 76
2020-01-11 17:00:00 15.5 18 Norte 36 Norte 0 -- -- 68
2020-01-11 16:00:00 16 23 Norte 35 Norte 0 -- -- 66
2020-01-11 15:00:00 16 21 Norte 38 Norte 0 -- -- 69
2020-01-11 14:00:00 15.4 23 Norte 37 Norte 0 -- -- 74
2020-01-11 13:00:00 16.3 23 Norte 41 Norte 0 -- -- 65
2020-01-11 12:00:00 16 23 Norte 32 Norte 0 -- -- 72
2020-01-11 11:00:00 15.9 21 Norte 35 Norte 0 -- -- 70
2020-01-11 10:00:00 15.5 16 Norte 32 Norte 0 -- -- 73
2020-01-11 09:00:00 15 21 Norte 35 Norte 0 -- -- 76
2020-01-11 08:00:00 14.7 18 Norte 31 Norte 0 -- -- 75
2020-01-11 07:00:00 14.7 17 Norte 32 Norte 0 -- -- 81
2020-01-11 06:00:00 14.4 19 Norte 33 Nordeste 0 -- -- 75
2020-01-11 05:00:00 14.7 15 Norte 29 Norte 0 -- -- 81
2020-01-11 04:00:00 14.6 19 Norte 36 Norte 0 -- -- 78
2020-01-11 03:00:00 14.9 16 Noroeste 28 Norte 0 -- -- 77
2020-01-11 02:00:00 15 18 Norte 36 Norte 0 -- -- 80
2020-01-11 01:00:00 14.9 18 Norte 36 Noroeste 0 -- -- 79
2020-01-11 00:00:00 15.1 23 Norte 36 Norte 0 -- -- 80
2020-01-10 23:00:00 15 20 Norte 33 Norte 0 -- -- 83
2020-01-10 22:00:00 15.2 23 Norte 33 Nordeste 0 -- -- 86
2020-01-10 21:00:00 15.4 17 Norte 36 Norte 0 -- -- 88
2020-01-10 20:00:00 15.4 19 Norte 38 Norte 0 -- -- 87
2020-01-10 19:00:00 15.7 19 Norte 33 Norte 0 -- -- 84
2020-01-10 18:00:00 15.6 15 Norte 27 Norte 0 -- -- 81
2020-01-10 17:00:00 16.6 21 Nordeste 38 Nordeste 0 -- -- 77
2020-01-10 16:00:00 16.9 24 Nordeste 42 Nordeste 0 -- -- 76
2020-01-10 15:00:00 17.1 26 Nordeste 40 Norte 0 -- -- 77
2020-01-10 14:00:00 16.9 25 Nordeste 39 Nordeste 0 -- -- 76
2020-01-10 13:00:00 16.9 25 Nordeste 44 Nordeste 0 -- -- 78
2020-01-10 12:00:00 17.6 26 Nordeste 45 Nordeste 0 -- -- 79
2020-01-10 11:00:00 16.9 27 Nordeste 43 Nordeste 0 -- -- 83
2020-01-10 10:00:00 15.8 23 Nordeste 36 Nordeste 0 -- -- 94
2020-01-10 09:00:00 15.2 17 Nordeste 32 Norte 0 -- -- 96
2020-01-10 08:00:00 14.6 13 Norte 41 Nordeste 0.4 -- -- 97
2020-01-10 07:00:00 14.6 10 Norte 44 Nordeste 0.2 -- -- 97
2020-01-10 06:00:00 14.7 20 Nordeste 33 Nordeste 0.2 -- -- 95
2020-01-10 05:00:00 14.4 23 Nordeste 50 Nordeste 0.6 -- -- 94
2020-01-10 04:00:00 14.8 21 Norte 37 Norte 0.4 -- -- 93
2020-01-10 03:00:00 15.5 18 Norte 31 Nordeste 0.2 -- -- 87
2020-01-10 02:00:00 15.8 17 Nordeste 36 Nordeste 0 -- -- 83
2020-01-10 01:00:00 15.6 17 Norte 31 Nordeste 0 -- -- 84
2020-01-10 00:00:00 15.5 16 Norte 29 Nordeste 0 -- -- 83
2020-01-09 23:00:00 15.5 16 Norte 35 Norte 0 -- -- 81
2020-01-09 22:00:00 15.6 15 Norte 40 Norte 0 -- -- 77
2020-01-09 21:00:00 15.6 22 Norte 40 Norte 0 -- -- 75
2020-01-09 20:00:00 15.5 21 Norte 39 Norte 0 -- -- 72
2020-01-09 19:00:00 15.4 22 Norte 39 Norte 0 -- -- 73
2020-01-09 18:00:00 15.6 21 Norte 38 Noroeste 0 -- -- 71
2020-01-09 17:00:00 16.1 23 Norte 36 Norte 0 -- -- 69
2020-01-09 16:00:00 16.4 24 Norte 39 Norte 0 -- -- 70
2020-01-09 15:00:00 17.1 24 Norte 40 Norte 0 -- -- 65
2020-01-09 14:00:00 17.1 24 Norte 35 Norte 0 -- -- 66
2020-01-09 13:00:00 17.3 23 Norte 41 Norte 0 -- -- 67
2020-01-09 12:00:00 17.4 24 Norte 38 Norte 0 -- -- 65
2020-01-09 11:00:00 17.3 23 Norte 35 Nordeste 0 -- -- 65
2020-01-09 10:00:00 16.6 20 Norte 36 Nordeste 0 -- -- 70
2020-01-09 09:00:00 15.2 15 Norte 26 Norte 0 -- -- 76
2020-01-09 08:00:00 14.5 13 Norte 24 Norte 0 -- -- 78
2020-01-09 07:00:00 14.7 16 Norte 28 Norte 0 -- -- 78
2020-01-09 06:00:00 14.4 12 Norte 27 Norte 0 -- -- 72
2020-01-09 05:00:00 14.6 12 Norte 25 Norte 0 -- -- 77
2020-01-09 04:00:00 14.2 11 Norte 20 Norte 0 -- -- 76
2020-01-09 03:00:00 14.4 14 Norte 28 Norte 0 -- -- 78
2020-01-09 02:00:00 14.2 9 Norte 19 Norte 0 -- -- 79
2020-01-09 01:00:00 14.1 11 Norte 19 Norte 0 -- -- 79
2020-01-09 00:00:00 14.3 10 Norte 32 Norte 0 -- -- 75
2020-01-08 23:00:00 14.9 15 Norte 26 Norte 0 -- -- 80
2020-01-08 22:00:00 14.5 12 Norte 24 Norte 0 -- -- 77
2020-01-08 21:00:00 14.7 14 Norte 26 Norte 0 -- -- 77
2020-01-08 20:00:00 14.9 14 Norte 23 Norte 0 -- -- 76
2020-01-08 19:00:00 14.8 14 Norte 21 Norte 0 -- -- 75
2020-01-08 18:00:00 15.2 12 Norte 27 Norte 0 -- -- 72
2020-01-08 17:00:00 16.6 13 Norte 26 Nordeste 0 -- -- 67
2020-01-08 16:00:00 16.3 21 Norte 34 Nordeste 0 -- -- 66
2020-01-08 15:00:00 17.4 19 Norte 31 Nordeste 0 -- -- 63
2020-01-08 14:00:00 17.2 17 Norte 27 Nordeste 0 -- -- 66
2020-01-08 13:00:00 16.7 17 Nordeste 30 Nordeste 0 -- -- 71
2020-01-08 12:00:00 16.5 17 Nordeste 26 Nordeste 0 -- -- 72
2020-01-08 11:00:00 16.5 15 Nordeste 28 Nordeste 0 -- -- 72
2020-01-08 10:00:00 17 16 Nordeste 25 Este 0 -- -- 70
2020-01-08 09:00:00 15.1 10 Nordeste 17 Nordeste 0 -- -- 82
2020-01-08 08:00:00 13.7 8 Norte 16 Norte 0 -- -- 83
2020-01-08 07:00:00 13.6 9 Norte 15 Norte 0 -- -- 83
2020-01-08 06:00:00 14 9 Norte 16 Norte 0 -- -- 82
2020-01-08 05:00:00 13.5 7 Norte 15 Norte 0 -- -- 81
2020-01-08 04:00:00 13.4 3 Norte 13 Este 0 -- -- 82
2020-01-08 03:00:00 13.9 6 Este 19 Nordeste 0 -- -- 82
2020-01-08 02:00:00 14.1 10 Este 22 Nordeste 0 -- -- 81
2020-01-08 01:00:00 14.2 13 Nordeste 25 Nordeste 0 -- -- 80
2020-01-08 00:00:00 14.5 16 Nordeste 27 Nordeste 0 -- -- 81
2020-01-07 23:00:00 14.5 15 Nordeste 26 Nordeste 0 -- -- 82
2020-01-07 22:00:00 14.4 11 Norte 24 Norte 0 -- -- 83
2020-01-07 21:00:00 14.3 13 Norte 23 Norte 0 -- -- 82
2020-01-07 20:00:00 14.3 9 Norte 17 Nordeste 0 -- -- 82
2020-01-07 19:00:00 14.7 10 Nordeste 22 Nordeste 0 -- -- 79
2020-01-07 18:00:00 15.3 14 Nordeste 25 Nordeste 0 -- -- 79
2020-01-07 17:00:00 16 16 Nordeste 29 Este 0 -- -- 76
2020-01-07 16:00:00 16.5 16 Nordeste 27 Nordeste 0 -- -- 75
2020-01-07 15:00:00 16.4 17 Nordeste 29 Este 0 -- -- 76
2020-01-07 14:00:00 16.8 20 Nordeste 28 Nordeste 0 -- -- 73
2020-01-07 13:00:00 17.5 15 Nordeste 28 Nordeste 0 -- -- 71
2020-01-07 12:00:00 17.7 17 Nordeste 28 Este 0 -- -- 72
2020-01-07 11:00:00 17.5 16 Este 27 Nordeste 0 -- -- 73
2020-01-07 10:00:00 15.9 13 Este 21 Nordeste 0 -- -- 84
2020-01-07 09:00:00 14.7 8 Nordeste 14 Este 0 -- -- 86
2020-01-07 08:00:00 13.7 5 Nordeste 17 Nordeste 0 -- -- 84
2020-01-07 07:00:00 13.7 9 Nordeste 19 Nordeste 0 -- -- 83
2020-01-07 06:00:00 13.7 6 Nordeste 19 Este 0 -- -- 82
2020-01-07 05:00:00 13.6 10 Nordeste 22 Nordeste 0 -- -- 82
2020-01-07 04:00:00 13.5 7 Nordeste 21 Nordeste 0 -- -- 81
2020-01-07 03:00:00 13.5 13 Nordeste 23 Nordeste 0 -- -- 81
2020-01-07 02:00:00 13.1 7 Nordeste 14 Nordeste 0 -- -- 82
2020-01-07 01:00:00 13 6 Nordeste 18 Nordeste 0 -- -- 81
2020-01-07 00:00:00 13.2 5 Norte 12 Norte 0 -- -- 84
2020-01-06 23:00:00 12.8 3 Nordeste 27 Nordeste 0 -- -- 87
2020-01-06 22:00:00 14.3 14 Nordeste 28 Nordeste 0 -- -- 77
2020-01-06 21:00:00 14.5 10 Norte 22 Noroeste 0 -- -- 77
2020-01-06 20:00:00 14.3 14 Noroeste 29 Noroeste 0 -- -- 75
2020-01-06 19:00:00 14.2 13 Norte 25 Norte 0 -- -- 69
2020-01-06 18:00:00 12.5 6 Norte 43 Norte 0 -- -- 87
2020-01-06 17:00:00 14.2 25 Norte 37 Norte 0.4 -- -- 79
2020-01-06 16:00:00 17.2 15 Norte 28 Norte 0 -- -- 64
2020-01-06 15:00:00 17.7 18 Noroeste 28 Noroeste 0 -- -- 58
2020-01-06 14:00:00 18 20 Noroeste 33 Norte 0 -- -- 55
2020-01-06 13:00:00 18.6 14 Norte 25 Norte 0 -- -- 49
2020-01-06 12:00:00 18 15 Norte 32 Nordeste 0 -- -- 58
2020-01-06 11:00:00 17.7 17 Norte 32 Norte 0 -- -- 59
2020-01-06 10:00:00 16.3 15 Norte 28 Norte 0 -- -- 68
2020-01-06 09:00:00 15 13 Norte 29 Noroeste 0 -- -- 73